Time;durP1;ratioP1;P1;durP2;ratioP2;P2;SDS_P1;SDS_P2;PMS_P1;PMS_P2;Temp;Humidity;BMP_temperature;BMP_pressure;BME280_temperature;BME280_humidity;BME280_pressure;Samples;Min_cycle;Max_cycle;Signal;HPM_P1;HPM_P2
2021/01/29 00:00:42;;;;;;;23.18;13.00;;;;;;;-1.59;70.86;98973.45;127524;1104;22508;-75
2021/01/29 00:03:17;;;;;;;24.25;13.60;;;;;;;-1.63;71.28;98972.06;127478;1103;22513;-75
2021/01/29 00:05:57;;;;;;;20.77;11.90;;;;;;;-1.63;70.95;98974.66;127949;1103;22539;-75
2021/01/29 00:08:26;;;;;;;21.68;13.80;;;;;;;-1.64;71.47;98964.41;127943;1102;24427;-76
2021/01/29 00:10:54;;;;;;;30.82;13.28;;;;;;;-1.63;71.27;98964.30;127901;1103;22957;-75
2021/01/29 00:13:25;;;;;;;26.90;13.50;;;;;;;-1.62;71.28;98965.93;127894;1104;22575;-75
2021/01/29 00:15:54;;;;;;;23.62;13.50;;;;;;;-1.63;71.17;98974.66;127934;1103;22576;-74
2021/01/29 00:18:23;;;;;;;23.45;13.83;;;;;;;-1.62;71.68;98968.52;127915;1103;22616;-73
2021/01/29 00:20:52;;;;;;;22.32;12.47;;;;;;;-1.62;71.19;98972.88;127906;1103;25808;-75
2021/01/29 00:23:21;;;;;;;21.50;13.22;;;;;;;-1.62;71.01;98981.47;127388;1103;22622;-74
2021/01/29 00:25:53;;;;;;;18.17;11.10;;;;;;;-1.64;70.91;98983.34;127874;1103;22625;-75
2021/01/29 00:28:23;;;;;;;21.50;11.93;;;;;;;-1.65;70.65;98984.30;127891;1103;22554;-75
2021/01/29 00:30:54;;;;;;;26.77;12.53;;;;;;;-1.66;70.87;98985.26;127470;1104;22941;-76
2021/01/29 00:33:26;;;;;;;21.87;13.05;;;;;;;-1.68;71.33;98990.55;127907;1104;22576;-75
2021/01/29 00:35:55;;;;;;;22.73;11.40;;;;;;;-1.69;71.00;98988.91;127946;1104;22657;-76
2021/01/29 00:38:24;;;;;;;22.50;12.25;;;;;;;-1.72;70.68;98981.38;127887;1103;22495;-75
2021/01/29 00:40:53;;;;;;;21.85;11.50;;;;;;;-1.73;70.77;98984.11;127459;1104;22508;-75
2021/01/29 00:43:21;;;;;;;18.40;10.78;;;;;;;-1.76;71.50;98981.77;127921;1102;22583;-75
2021/01/29 00:45:49;;;;;;;25.17;13.60;;;;;;;-1.76;71.59;98994.70;127856;1103;22527;-75
2021/01/29 00:48:18;;;;;;;19.73;11.73;;;;;;;-1.78;71.54;98994.00;127894;1103;22508;-75
2021/01/29 00:50:46;;;;;;;20.45;11.10;;;;;;;-1.81;71.36;99002.00;127892;1104;22580;-75
2021/01/29 00:53:14;;;;;;;23.77;12.30;;;;;;;-1.78;71.48;99006.94;127433;1104;22629;-75
2021/01/29 00:55:43;;;;;;;20.72;11.55;;;;;;;-1.80;71.20;98990.70;127902;1104;22658;-75
2021/01/29 00:58:16;;;;;;;20.17;10.30;;;;;;;-1.84;71.61;99000.48;127856;1103;22625;-75
2021/01/29 01:01:13;;;;;;;21.42;11.80;;;;;;;-1.88;71.63;99003.44;127616;1102;24610;-75
2021/01/29 01:03:44;;;;;;;28.75;13.68;;;;;;;-1.91;71.13;99000.14;127528;1104;22591;-75
2021/01/29 01:06:14;;;;;;;27.22;14.33;;;;;;;-1.91;71.36;98997.55;127879;1104;24962;-75
2021/01/29 01:08:58;;;;;;;20.12;10.38;;;;;;;-1.91;71.36;98994.96;127881;1102;22535;-75
2021/01/29 01:11:35;;;;;;;16.80;10.60;;;;;;;-1.93;71.28;98994.28;127538;1104;22629;-75
2021/01/29 01:14:32;;;;;;;21.45;10.15;;;;;;;-1.97;71.54;98979.91;127873;1102;22536;-75
2021/01/29 01:17:20;;;;;;;18.98;10.90;;;;;;;-1.98;71.57;98980.05;127494;1104;22536;-75
2021/01/29 01:20:06;;;;;;;15.23;8.73;;;;;;;-1.98;71.15;98983.45;127893;1103;24584;-75
2021/01/29 01:22:34;;;;;;;15.50;9.05;;;;;;;-2.01;71.15;98970.76;127531;1104;22518;-75
2021/01/29 01:25:26;;;;;;;19.73;10.38;;;;;;;-2.03;71.45;98971.81;127828;1104;22532;-76
2021/01/29 01:27:56;;;;;;;16.65;8.85;;;;;;;-2.02;71.66;98971.71;127884;1104;22624;-76
2021/01/29 01:30:40;;;;;;;16.70;9.37;;;;;;;-2.04;71.32;98965.01;127925;1104;22495;-76
2021/01/29 01:33:13;;;;;;;15.50;8.05;;;;;;;-2.05;71.37;98965.95;127901;1103;23581;-76
2021/01/29 01:36:02;;;;;;;15.30;7.25;;;;;;;-2.06;71.33;98969.50;127879;1104;22505;-76
2021/01/29 01:38:35;;;;;;;13.70;7.37;;;;;;;-2.06;71.79;98966.91;127922;1104;24588;-76
2021/01/29 01:41:04;;;;;;;14.93;7.37;;;;;;;-2.06;71.42;98969.50;127911;1104;22533;-76
2021/01/29 01:43:40;;;;;;;16.82;7.85;;;;;;;-2.07;71.23;98973.83;127883;1102;24632;-75
2021/01/29 01:46:35;;;;;;;14.43;7.90;;;;;;;-2.09;71.18;98967.16;127860;1103;22512;-76
2021/01/29 01:49:25;;;;;;;10.98;6.75;;;;;;;-2.12;71.14;98968.20;127920;1104;22498;-75
2021/01/29 01:52:30;;;;;;;16.10;8.45;;;;;;;-2.15;71.71;98974.44;127862;1104;22630;-75
2021/01/29 01:55:22;;;;;;;15.40;7.80;;;;;;;-2.18;71.86;98963.52;127877;1104;23853;-75
2021/01/29 01:58:01;;;;;;;16.45;7.85;;;;;;;-2.22;71.20;98975.05;127872;1102;22530;-75
2021/01/29 02:00:58;;;;;;;15.45;8.58;;;;;;;-2.24;71.98;98972.57;127895;1102;24585;-75
2021/01/29 02:03:34;;;;;;;14.78;8.28;;;;;;;-2.23;71.49;98968.21;127859;1103;22500;-74
2021/01/29 02:06:23;;;;;;;15.70;7.62;;;;;;;-2.23;71.35;98976.82;127924;1102;23311;-74
2021/01/29 02:09:18;;;;;;;13.48;8.08;;;;;;;-2.24;71.38;98982.91;127921;1103;22520;-76
2021/01/29 02:12:16;;;;;;;15.10;7.67;;;;;;;-2.26;71.66;98984.81;127881;1102;22506;-74
2021/01/29 02:14:59;;;;;;;17.60;9.10;;;;;;;-2.25;71.84;98985.64;127844;1103;22500;-75
2021/01/29 02:17:49;;;;;;;14.93;7.75;;;;;;;-2.25;71.86;98978.70;127911;1102;25113;-75
2021/01/29 02:22:03;;;;;;;15.15;8.48;;;;;;;-2.28;71.48;98983.28;127811;1104;22500;-75
2021/01/29 02:25:51;;;;;;;18.05;8.15;;;;;;;-2.29;71.82;98986.83;127314;1108;22528;-75
2021/01/29 02:28:45;;;;;;;12.98;7.50;;;;;;;-2.31;71.82;98973.18;126862;1110;22569;-75
2021/01/29 02:31:38;;;;;;;13.45;7.42;;;;;;;-2.34;71.87;98974.23;126900;1109;22587;-75
2021/01/29 02:34:40;;;;;;;15.43;7.40;;;;;;;-2.36;72.06;98970.96;126906;1109;22553;-75
2021/01/29 02:37:55;;;;;;;11.33;7.47;;;;;;;-2.39;71.87;98966.02;126892;1109;22647;-75
2021/01/29 02:40:49;;;;;;;15.13;7.50;;;;;;;-2.43;72.07;98972.38;126898;1109;22609;-75
2021/01/29 02:43:47;;;;;;;13.10;7.92;;;;;;;-2.41;72.46;98986.00;126864;1109;22583;-75
2021/01/29 02:47:02;;;;;;;13.40;7.20;;;;;;;-2.43;71.82;98970.61;126608;1112;22559;-75
2021/01/29 02:50:03;;;;;;;17.00;7.62;;;;;;;-2.45;72.23;98975.08;126628;1113;22565;-76
2021/01/29 02:53:20;;;;;;;13.88;7.75;;;;;;;-2.40;72.34;98972.97;126469;1113;22636;-75
2021/01/29 02:56:48;;;;;;;12.25;6.97;;;;;;;-2.42;72.27;98979.19;126456;1112;22578;-74
2021/01/29 02:59:58;;;;;;;13.05;7.90;;;;;;;-2.41;72.34;98983.41;126316;1115;22572;-75
2021/01/29 03:03:01;;;;;;;14.78;6.72;;;;;;;-2.42;72.62;98980.01;126936;1109;22541;-75
2021/01/29 03:05:47;;;;;;;13.20;7.50;;;;;;;-2.42;72.42;98984.36;127075;1105;22515;-75
2021/01/29 03:08:35;;;;;;;15.15;6.92;;;;;;;-2.39;72.18;98992.70;127352;1106;24450;-75
2021/01/29 03:11:46;;;;;;;15.43;6.83;;;;;;;-2.41;72.54;98991.98;127113;1107;22716;-74
2021/01/29 03:14:49;;;;;;;12.90;8.18;;;;;;;-2.41;72.42;98981.64;127371;1108;22640;-74
2021/01/29 03:17:48;;;;;;;17.73;9.55;;;;;;;-2.43;71.97;98980.96;127356;1108;24539;-74
2021/01/29 03:20:53;;;;;;;17.52;8.95;;;;;;;-2.43;72.44;98977.56;127366;1106;22542;-75
2021/01/29 03:23:58;;;;;;;11.45;6.95;;;;;;;-2.43;71.99;98967.21;127625;1104;22502;-74
2021/01/29 03:26:53;;;;;;;12.55;7.17;;;;;;;-2.44;72.69;98973.30;127915;1102;22480;-73
2021/01/29 03:29:46;;;;;;;16.42;7.70;;;;;;;-2.48;72.25;98962.38;127889;1104;25077;-73
2021/01/29 03:32:34;;;;;;;;;;;;;;;-2.52;72.24;98953.22;127868;1103;22622;-74
2021/01/29 03:35:44;;;;;;;12.18;7.30;;;;;;;-2.56;72.45;98966.52;127354;1107;21403;-74
2021/01/29 03:39:17;;;;;;;16.65;9.90;;;;;;;-2.56;72.49;98959.58;127385;1107;22532;-74
2021/01/29 03:42:34;;;;;;;17.80;9.55;;;;;;;-2.57;72.83;98960.50;127353;1107;22533;-74
2021/01/29 03:45:32;;;;;;;12.33;8.03;;;;;;;-2.55;72.53;98963.80;127451;1107;22565;-75
2021/01/29 03:48:29;;;;;;;18.05;9.33;;;;;;;-2.55;72.45;98966.38;127433;1106;22526;-75
2021/01/29 03:52:02;;;;;;;16.40;9.60;;;;;;;-2.56;72.51;98969.92;126920;1110;22509;-75
2021/01/29 03:54:58;;;;;;;13.13;7.62;;;;;;;-2.53;73.22;98971.42;126968;1109;24395;-75
2021/01/29 03:58:04;;;;;;;11.75;7.55;;;;;;;-2.55;72.54;98976.73;126896;1109;22973;-76
2021/01/29 04:01:09;;;;;;;14.35;7.67;;;;;;;-2.55;72.58;98970.73;126942;1109;22514;-75
2021/01/29 04:04:17;;;;;;;17.45;6.75;;;;;;;-2.56;72.92;98974.27;126875;1109;22521;-76
2021/01/29 04:07:34;;;;;;;12.13;7.40;;;;;;;-2.58;72.88;98979.55;126931;1110;23526;-75
2021/01/29 04:10:26;;;;;;;18.52;8.43;;;;;;;-2.59;72.40;98977.09;127161;1107;22515;-74
2021/01/29 04:13:22;;;;;;;16.50;8.97;;;;;;;-2.58;72.58;98984.72;127311;1106;22505;-74
2021/01/29 04:15:54;;;;;;;13.80;7.47;;;;;;;-2.53;72.95;98986.94;127406;1107;22506;-74
2021/01/29 04:18:29;;;;;;;12.27;7.53;;;;;;;-2.46;72.83;98985.55;127385;1107;22506;-75
2021/01/29 04:21:01;;;;;;;12.70;5.97;;;;;;;-2.43;72.84;98980.14;127349;1106;23463;-75
2021/01/29 04:23:39;;;;;;;14.50;6.42;;;;;;;-2.40;72.96;98991.07;127747;1104;24600;-75
2021/01/29 04:26:14;;;;;;;16.60;9.05;;;;;;;-2.36;72.82;98983.89;127909;1102;22528;-75
2021/01/29 04:28:57;;;;;;;14.13;7.85;;;;;;;-2.32;72.64;98985.30;127893;1104;22475;-74
2021/01/29 04:31:28;;;;;;;16.93;8.10;;;;;;;-2.31;72.65;98992.09;127892;1104;22586;-75
2021/01/29 04:34:08;;;;;;;11.73;6.28;;;;;;;-2.28;72.69;98989.28;127906;1103;22505;-75
2021/01/29 04:36:38;;;;;;;11.73;6.15;;;;;;;-2.25;73.01;98977.88;127887;1104;22628;-75
2021/01/29 04:39:13;;;;;;;12.70;7.25;;;;;;;-2.22;72.77;98977.64;127924;1104;22550;-75
2021/01/29 04:42:04;;;;;;;14.93;10.07;;;;;;;-2.20;72.53;98980.91;127912;1103;22527;-75
2021/01/29 04:45:02;;;;;;;11.57;7.83;;;;;;;-2.19;72.87;98974.81;127868;1104;22515;-75
2021/01/29 04:47:42;;;;;;;11.33;7.00;;;;;;;-2.22;72.46;98967.30;127887;1103;22586;-75
2021/01/29 04:50:35;;;;;;;10.58;6.62;;;;;;;-2.22;72.81;98962.12;127890;1102;24347;-75
2021/01/29 04:54:02;;;;;;;14.73;7.25;;;;;;;-2.25;72.22;98964.94;127906;1103;22502;-75
2021/01/29 04:57:12;;;;;;;11.93;7.12;;;;;;;-2.32;72.74;98969.77;127419;1105;24379;-75
2021/01/29 04:59:46;;;;;;;15.63;8.63;;;;;;;-2.35;72.30;98969.19;127443;1106;22964;-75
2021/01/29 05:02:38;;;;;;;12.20;7.95;;;;;;;-2.35;73.09;98969.19;127365;1107;22661;-74
2021/01/29 05:06:12;;;;;;;12.82;7.97;;;;;;;-2.39;72.64;98966.84;126935;1110;24363;-75
2021/01/29 05:10:11;;;;;;;15.40;8.10;;;;;;;-2.46;72.26;98962.28;126889;1110;22633;-75
2021/01/29 05:13:13;;;;;;;14.10;7.85;;;;;;;-2.48;72.57;98949.45;126894;1109;22522;-75
2021/01/29 05:16:09;;;;;;;18.80;8.78;;;;;;;-2.44;72.84;98961.19;126948;1109;22612;-75
2021/01/29 05:19:05;;;;;;;15.30;8.73;;;;;;;-2.42;72.52;98959.32;126917;1109;22523;-75
2021/01/29 05:22:37;;;;;;;15.37;8.83;;;;;;;-2.38;73.12;98952.14;126857;1109;22511;-76
2021/01/29 05:26:05;;;;;;;17.27;8.43;;;;;;;-2.37;73.11;98946.02;126616;1112;22561;-75
2021/01/29 05:29:16;;;;;;;18.95;7.78;;;;;;;-2.37;72.65;98949.45;126541;1112;22685;-75
2021/01/29 05:31:52;;;;;;;11.50;7.10;;;;;;;-2.34;72.59;98947.55;126496;1112;22550;-75
2021/01/29 05:34:51;;;;;;;11.68;7.55;;;;;;;-2.31;72.58;98952.48;126577;1113;22569;-74
2021/01/29 05:38:01;;;;;;;14.33;9.40;;;;;;;-2.29;72.78;98955.78;126533;1112;22558;-74
2021/01/29 05:40:50;;;;;;;15.50;9.50;;;;;;;-2.27;72.57;98952.11;126757;1109;22584;-74
2021/01/29 05:43:36;;;;;;;11.25;6.28;;;;;;;-2.22;73.11;98954.36;126912;1111;22649;-74
2021/01/29 05:46:26;;;;;;;16.75;8.83;;;;;;;-2.22;73.03;98956.94;126910;1108;22541;-75
2021/01/29 05:49:21;;;;;;;23.27;10.53;;;;;;;-2.20;72.78;98947.28;126716;1111;24417;-75
2021/01/29 05:52:42;;;;;;;14.80;7.60;;;;;;;-2.17;72.40;98944.45;126882;1111;22578;-75
2021/01/29 05:55:31;;;;;;;14.25;8.00;;;;;;;-2.16;73.03;98944.34;126931;1110;22554;-75
2021/01/29 05:58:35;;;;;;;12.63;7.95;;;;;;;-2.15;72.88;98935.63;126895;1109;24632;-73
2021/01/29 06:01:58;;;;;;;16.42;9.33;;;;;;;-2.10;72.88;98948.19;127201;1107;24596;-75
2021/01/29 06:04:52;;;;;;;15.28;8.33;;;;;;;-2.09;72.31;98939.51;127881;1103;22566;-73
2021/01/29 06:07:25;;;;;;;;;;;;;;;-2.09;72.79;98949.05;127926;1104;22548;-73
2021/01/29 06:10:21;;;;;;;13.48;6.92;;;;;;;-2.11;72.18;98945.73;127893;1102;21292;-75
2021/01/29 06:13:35;;;;;;;14.18;7.42;;;;;;;-2.09;72.51;98947.27;127894;1103;22511;-75
2021/01/29 06:16:30;;;;;;;;;;;;;;;-2.11;72.08;98945.73;127894;1104;22508;-74
2021/01/29 06:19:26;;;;;;;14.00;8.57;;;;;;;-2.14;72.80;98929.50;127906;1104;21313;-75
2021/01/29 06:22:18;;;;;;;12.63;7.22;;;;;;;-2.10;72.36;98940.43;127894;1102;22595;-75
2021/01/29 06:25:25;;;;;;;9.68;6.53;;;;;;;-2.09;72.60;98949.86;127928;1104;22530;-74
2021/01/29 06:28:22;;;;;;;12.85;8.03;;;;;;;-2.10;72.43;98943.02;127900;1104;22538;-75
2021/01/29 06:31:42;;;;;;;15.75;8.00;;;;;;;-2.07;72.38;98935.02;127920;1105;22507;-75
2021/01/29 06:34:53;;;;;;;12.15;8.13;;;;;;;-2.04;72.58;98936.55;127353;1108;22531;-75
2021/01/29 06:37:45;;;;;;;12.55;7.80;;;;;;;-2.02;72.11;98935.48;127389;1106;24724;-74
2021/01/29 06:40:31;;;;;;;17.73;8.78;;;;;;;-2.02;71.89;98942.43;127390;1106;22620;-74
2021/01/29 06:43:11;;;;;;;17.42;7.25;;;;;;;-2.01;71.96;98942.30;127365;1107;22775;-75
2021/01/29 06:45:56;;;;;;;15.28;8.53;;;;;;;-1.99;72.11;98937.02;127363;1107;22536;-74
2021/01/29 06:48:46;;;;;;;17.65;10.03;;;;;;;-1.98;71.43;98938.64;127380;1107;23400;-75
2021/01/29 06:51:39;;;;;;;13.88;7.62;;;;;;;-1.98;71.58;98936.88;127438;1105;22563;-74
2021/01/29 06:54:45;;;;;;;10.75;6.47;;;;;;;-1.97;71.84;98942.87;127480;1105;22546;-74
2021/01/29 06:57:47;;;;;;;12.53;7.83;;;;;;;-1.96;71.91;98939.36;127503;1105;22646;-73
2021/01/29 07:00:29;;;;;;;14.53;7.60;;;;;;;-1.95;72.05;98930.64;127362;1106;22510;-74
2021/01/29 07:03:35;;;;;;;11.40;6.35;;;;;;;-1.94;71.42;98933.09;127377;1107;22527;-73
2021/01/29 07:06:18;;;;;;;8.40;5.97;;;;;;;-1.95;71.66;98938.41;127397;1106;22531;-73
2021/01/29 07:09:21;;;;;;;;;;;;;;;-1.95;71.14;98918.52;127389;1106;25112;-74
2021/01/29 07:12:59;;;;;;;7.30;5.40;;;;;;;-1.99;71.23;98927.48;127852;1104;21304;-74
2021/01/29 07:15:58;;;;;;;11.53;6.10;;;;;;;-1.96;71.62;98919.47;127322;1107;22632;-74
2021/01/29 07:19:02;;;;;;;7.45;5.72;;;;;;;-1.90;71.28;98902.60;127368;1105;22633;-76
2021/01/29 07:22:16;;;;;;;9.85;5.00;;;;;;;-1.67;71.55;98911.94;127347;1108;22494;-80
2021/01/29 07:25:19;;;;;;;8.70;5.30;;;;;;;-1.51;72.10;98897.72;127475;1106;22519;-79
2021/01/29 07:28:33;;;;;;;8.63;4.87;;;;;;;-1.42;71.57;98907.33;127725;1108;22614;-80
2021/01/29 07:31:26;;;;;;;7.53;4.63;;;;;;;-1.42;70.19;98902.96;127781;1106;22967;-84
2021/01/29 07:34:16;;;;;;;8.65;5.12;;;;;;;-1.40;70.80;98900.23;127803;1107;22624;-83
2021/01/29 07:37:30;;;;;;;8.48;4.90;;;;;;;-1.36;70.88;98891.28;127793;1106;22514;-81
2021/01/29 07:40:13;;;;;;;9.78;6.30;;;;;;;-1.32;70.24;98886.66;127437;1107;22524;-80
2021/01/29 07:43:23;;;;;;;14.50;9.68;;;;;;;-1.30;69.98;98887.33;127417;1106;22804;-80
2021/01/29 07:46:42;;;;;;;19.12;13.05;;;;;;;-1.30;69.92;98892.52;127680;1107;22664;-80
2021/01/29 07:49:44;;;;;;;15.95;10.15;;;;;;;-1.29;70.04;98883.81;127722;1108;22598;-80
2021/01/29 07:52:48;;;;;;;19.30;11.08;;;;;;;-1.26;69.84;98886.16;128103;1104;22522;-80
2021/01/29 07:56:09;;;;;;;21.05;11.90;;;;;;;-1.20;69.91;98883.87;128098;1104;24496;-79
2021/01/29 07:59:05;;;;;;;19.17;14.20;;;;;;;-1.15;69.68;98880.87;127524;1107;22641;-79
2021/01/29 08:02:13;;;;;;;23.57;17.65;;;;;;;-1.10;69.71;98878.73;127665;1107;22527;-79
2021/01/29 08:05:14;;;;;;;20.45;18.32;;;;;;;-1.08;69.40;98873.41;127669;1108;22510;-79
2021/01/29 08:08:13;;;;;;;11.30;8.30;;;;;;;-1.07;68.71;98872.45;127703;1107;22554;-80
2021/01/29 08:10:49;;;;;;;11.35;7.42;;;;;;;-1.05;69.06;98871.38;127124;1109;22989;-79
2021/01/29 08:13:59;;;;;;;18.27;9.90;;;;;;;-1.01;68.90;98866.75;127138;1109;22543;-80
2021/01/29 08:17:07;;;;;;;11.43;7.72;;;;;;;-0.99;68.94;98864.86;127090;1111;24707;-79
2021/01/29 08:20:15;;;;;;;15.65;12.58;;;;;;;-0.97;68.87;98876.74;127110;1111;22630;-80
2021/01/29 08:23:17;;;;;;;16.00;9.05;;;;;;;-0.95;68.96;98876.59;127050;1110;22506;-79
2021/01/29 08:26:16;;;;;;;16.23;9.30;;;;;;;-0.91;68.48;98880.56;127090;1109;22644;-79
2021/01/29 08:29:21;;;;;;;10.10;6.15;;;;;;;-0.88;68.32;98867.34;127083;1109;22592;-79
2021/01/29 08:32:46;;;;;;;10.90;6.67;;;;;;;-0.85;67.68;98867.08;127119;1109;23290;-79
2021/01/29 08:35:30;;;;;;;15.03;7.93;;;;;;;-0.82;68.39;98853.86;127021;1110;22560;-79
2021/01/29 08:38:16;;;;;;;13.22;7.83;;;;;;;-0.81;67.83;98865.05;127116;1110;22524;-79
2021/01/29 08:41:03;;;;;;;17.10;12.55;;;;;;;-0.80;67.72;98861.49;127084;1109;24749;-79
2021/01/29 08:43:38;;;;;;;23.83;16.35;;;;;;;-0.78;67.43;98859.59;127104;1109;22521;-79
2021/01/29 08:46:28;;;;;;;13.10;8.98;;;;;;;-0.73;67.80;98863.45;127108;1109;22504;-80
2021/01/29 08:49:25;;;;;;;15.75;9.90;;;;;;;-0.68;67.65;98859.63;127167;1108;22524;-78
2021/01/29 08:52:18;;;;;;;14.50;9.60;;;;;;;-0.72;67.02;98864.27;127368;1108;22525;-75
2021/01/29 08:54:58;;;;;;;21.50;13.45;;;;;;;-0.79;66.46;98853.59;127092;1108;22525;-75
2021/01/29 08:58:00;;;;;;;19.37;10.53;;;;;;;-0.77;66.48;98859.48;127335;1106;22589;-75
2021/01/29 09:00:33;;;;;;;13.13;8.20;;;;;;;-0.73;66.84;98855.66;126847;1110;22550;-75
2021/01/29 09:03:23;;;;;;;19.87;10.43;;;;;;;-0.71;66.70;98856.34;126873;1109;22550;-75
2021/01/29 09:06:17;;;;;;;20.25;11.00;;;;;;;-0.72;66.12;98862.48;126904;1110;22525;-75
2021/01/29 09:08:55;;;;;;;20.75;12.05;;;;;;;-0.71;65.78;98856.34;126905;1109;22624;-76
2021/01/29 09:11:43;;;;;;;21.12;12.35;;;;;;;-0.70;66.48;98859.74;126918;1108;24613;-76
2021/01/29 09:14:26;;;;;;;19.00;12.27;;;;;;;-0.69;65.70;98858.00;127400;1106;23255;-75
2021/01/29 09:17:20;;;;;;;16.02;10.45;;;;;;;-0.65;66.58;98856.77;127389;1107;22503;-75
2021/01/29 09:20:01;;;;;;;16.67;9.05;;;;;;;-0.70;65.86;98859.74;127016;1108;24386;-76
2021/01/29 09:22:50;;;;;;;15.83;8.75;;;;;;;-0.79;65.92;98856.19;127319;1106;22693;-75
2021/01/29 09:25:55;;;;;;;16.07;10.45;;;;;;;-0.78;65.86;98846.63;127367;1106;24575;-76
2021/01/29 09:28:32;;;;;;;16.87;12.07;;;;;;;-0.72;65.75;98854.70;127052;1106;24564;-76
2021/01/29 09:31:22;;;;;;;18.80;13.22;;;;;;;-0.67;65.20;98843.10;127356;1107;22539;-76
2021/01/29 09:33:59;;;;;;;18.95;12.93;;;;;;;-0.62;65.83;98848.73;127274;1108;22501;-76
2021/01/29 09:36:47;;;;;;;13.72;10.23;;;;;;;-0.63;65.76;98847.91;127410;1106;24684;-75
2021/01/29 09:39:38;;;;;;;14.10;10.13;;;;;;;-0.63;65.15;98836.69;127529;1105;23343;-75
2021/01/29 09:42:11;;;;;;;12.50;9.30;;;;;;;-0.61;65.48;98829.61;127961;1103;22502;-75
2021/01/29 09:44:46;;;;;;;13.03;9.28;;;;;;;-0.57;65.31;98820.59;127955;1104;22501;-75
2021/01/29 09:47:23;;;;;;;16.55;11.75;;;;;;;-0.51;65.11;98815.69;127907;1102;22501;-75
2021/01/29 09:50:05;;;;;;;17.32;11.60;;;;;;;-0.41;64.80;98817.48;127892;1105;22535;-75
2021/01/29 09:52:58;;;;;;;14.28;8.18;;;;;;;-0.39;64.83;98806.02;127873;1103;22582;-75
2021/01/29 09:56:05;;;;;;;18.92;12.78;;;;;;;-0.39;65.20;98812.99;127889;1102;24363;-75
2021/01/29 09:59:10;;;;;;;15.37;11.43;;;;;;;-0.35;64.71;98812.57;127876;1104;24600;-75
2021/01/29 10:01:43;;;;;;;23.05;13.38;;;;;;;-0.25;64.68;98813.39;127957;1105;22530;-75
2021/01/29 10:04:23;;;;;;;19.40;12.00;;;;;;;-0.15;64.16;98812.58;127898;1103;22622;-75
2021/01/29 10:07:05;;;;;;;14.70;9.18;;;;;;;-0.13;64.49;98802.89;127940;1102;22502;-75
2021/01/29 10:09:37;;;;;;;15.18;9.83;;;;;;;-0.10;64.49;98806.03;128005;1104;25113;-75
2021/01/29 10:12:19;;;;;;;17.25;10.38;;;;;;;-0.04;64.36;98802.86;127905;1103;22528;-75
2021/01/29 10:15:13;;;;;;;15.95;10.88;;;;;;;0.05;63.78;98800.41;127905;1104;22519;-75
2021/01/29 10:18:17;;;;;;;12.93;9.58;;;;;;;0.04;63.44;98814.36;127922;1103;22609;-75
2021/01/29 10:20:46;;;;;;;19.07;9.83;;;;;;;0.04;63.74;98814.36;127597;1105;24310;-73
2021/01/29 10:23:45;;;;;;;13.95;10.60;;;;;;;0.04;63.68;98803.97;127823;1105;22615;-74
2021/01/29 10:26:35;;;;;;;16.05;10.38;;;;;;;0.10;63.69;98800.80;127417;1106;22630;-74
2021/01/29 10:29:17;;;;;;;15.65;10.35;;;;;;;0.19;63.62;98803.38;127357;1106;22503;-74
2021/01/29 10:32:20;;;;;;;24.23;14.58;;;;;;;0.21;62.59;98795.46;127329;1106;23261;-74
2021/01/29 10:34:54;;;;;;;15.10;10.03;;;;;;;0.19;62.89;98794.77;127303;1107;22558;-74
2021/01/29 10:38:03;;;;;;;22.27;14.87;;;;;;;0.18;62.55;98796.55;127346;1108;22638;-74
2021/01/29 10:40:36;;;;;;;19.32;16.05;;;;;;;0.11;62.70;98789.47;127269;1108;135477;-74
2021/01/29 10:43:20;;;;;;;22.62;17.77;;;;;;;0.18;62.72;98791.36;127547;1106;27076;-74
2021/01/29 10:46:15;;;;;;;23.50;20.08;;;;;;;0.24;62.65;98787.39;127454;1105;22932;-74
2021/01/29 10:48:47;;;;;;;18.95;13.15;;;;;;;0.36;62.73;98781.05;127569;1107;22539;-74
2021/01/29 10:51:35;;;;;;;16.25;11.83;;;;;;;0.59;62.59;98772.92;127512;1106;22553;-74
2021/01/29 10:54:05;;;;;;;15.28;11.85;;;;;;;0.78;62.23;98769.43;127656;1108;22521;-74
2021/01/29 10:57:05;;;;;;;15.93;11.00;;;;;;;0.87;61.63;98771.98;127549;1107;22519;-74
2021/01/29 11:00:00;;;;;;;13.80;10.00;;;;;;;0.78;61.78;98775.44;127392;1106;22554;-74
2021/01/29 11:02:40;;;;;;;25.10;15.88;;;;;;;0.78;61.23;98775.44;127426;1107;22522;-74
2021/01/29 11:05:22;;;;;;;45.33;23.45;;;;;;;0.77;61.04;98762.58;127894;1103;23417;-74
2021/01/29 11:07:54;;;;;;;50.92;35.63;;;;;;;0.77;61.59;98768.62;128006;1102;22645;-74
2021/01/29 11:10:22;;;;;;;37.47;26.53;;;;;;;0.74;61.27;98776.70;127999;1103;22517;-74
2021/01/29 11:13:46;;;;;;;43.87;28.23;;;;;;;0.69;60.50;98773.70;127997;1104;22516;-74
2021/01/29 11:16:22;;;;;;;23.55;19.57;;;;;;;0.68;60.08;98770.28;127469;1107;22649;-74
2021/01/29 11:19:02;;;;;;;28.27;17.55;;;;;;;0.65;60.33;98767.97;127511;1107;22645;-73
2021/01/29 11:21:51;;;;;;;26.73;17.42;;;;;;;0.63;60.35;98769.91;127509;1108;22565;-73
2021/01/29 11:24:37;;;;;;;18.82;12.40;;;;;;;0.62;60.92;98764.84;127394;1105;24623;-74
2021/01/29 11:27:27;;;;;;;17.93;11.10;;;;;;;0.59;60.09;98767.72;127336;1106;22543;-74
2021/01/29 11:30:23;;;;;;;22.13;14.30;;;;;;;0.49;60.41;98767.75;127380;1106;24714;-74
2021/01/29 11:33:06;;;;;;;25.12;14.23;;;;;;;0.43;59.99;98761.37;127173;1106;22552;-75
2021/01/29 11:35:50;;;;;;;29.25;13.90;;;;;;;0.41;59.75;98763.28;127017;1108;22537;-74
2021/01/29 11:38:39;;;;;;;16.82;10.78;;;;;;;0.45;60.87;98769.01;127469;1108;22773;-75
2021/01/29 11:41:30;;;;;;;16.97;11.47;;;;;;;0.46;59.99;98768.84;127303;1106;22698;-74
2021/01/29 11:44:11;;;;;;;18.45;11.48;;;;;;;0.44;60.18;98764.78;127338;1106;22580;-74
2021/01/29 11:47:17;;;;;;;15.88;9.53;;;;;;;0.35;59.44;98761.24;127375;1107;22537;-75
2021/01/29 11:50:22;;;;;;;24.32;17.67;;;;;;;0.26;60.42;98754.29;126922;1109;22747;-74
2021/01/29 11:53:32;;;;;;;19.25;12.07;;;;;;;0.19;59.68;98758.41;126997;1108;22565;-74
2021/01/29 11:56:17;;;;;;;19.10;12.88;;;;;;;0.10;59.71;98751.45;127228;1108;22497;-74
2021/01/29 11:59:12;;;;;;;20.43;14.53;;;;;;;0.10;60.11;98738.48;127311;1106;22528;-74
2021/01/29 12:02:11;;;;;;;17.23;11.33;;;;;;;0.05;60.51;98735.50;127332;1105;22522;-73
2021/01/29 12:04:48;;;;;;;21.82;13.45;;;;;;;0.03;60.30;98727.02;126888;1109;22555;-74
2021/01/29 12:07:29;;;;;;;28.80;19.23;;;;;;;0.01;60.48;98723.77;126913;1111;24356;-74
2021/01/29 12:10:29;;;;;;;26.50;15.60;;;;;;;-0.08;60.57;98718.44;126905;1109;22521;-74
2021/01/29 12:13:53;;;;;;;24.25;18.73;;;;;;;-0.21;60.21;98717.10;126842;1111;22624;-74
2021/01/29 12:16:35;;;;;;;20.97;14.70;;;;;;;-0.31;60.61;98722.30;126700;1111;22521;-74
2021/01/29 12:19:06;;;;;;;20.15;16.20;;;;;;;-0.29;60.89;98718.62;126666;1111;24650;-75
2021/01/29 12:21:55;;;;;;;23.77;15.75;;;;;;;-0.25;60.25;98716.56;126930;1109;24608;-74
2021/01/29 12:24:52;;;;;;;30.68;21.62;;;;;;;-0.24;60.93;98713.00;126705;1111;22649;-74
2021/01/29 12:27:41;;;;;;;37.75;26.20;;;;;;;-0.21;60.13;98701.53;126893;1109;22726;-75
2021/01/29 12:30:45;;;;;;;31.23;25.35;;;;;;;-0.25;60.65;98700.99;126929;1110;22720;-75
2021/01/29 12:33:24;;;;;;;31.12;22.95;;;;;;;-0.36;60.50;98707.16;126880;1111;23293;-75
2021/01/29 12:36:00;;;;;;;29.40;26.00;;;;;;;-0.43;60.33;98707.83;126908;1109;23400;-75
2021/01/29 12:38:57;;;;;;;36.28;30.77;;;;;;;-0.43;60.31;98690.52;126584;1111;22750;-75
2021/01/29 12:41:38;;;;;;;32.03;25.68;;;;;;;-0.44;60.64;98685.45;126964;1109;22561;-75
2021/01/29 12:44:29;;;;;;;39.73;27.00;;;;;;;-0.52;60.53;98688.74;126886;1109;22539;-74
2021/01/29 12:47:16;;;;;;;61.10;55.55;;;;;;;-0.60;60.38;98683.41;126962;1109;24388;-75
2021/01/29 12:49:59;;;;;;;34.95;31.37;;;;;;;-0.65;60.95;98683.83;127006;1109;22529;-75
2021/01/29 12:52:44;;;;;;;31.95;25.77;;;;;;;-0.60;60.83;98671.28;127215;1106;22510;-75
2021/01/29 12:55:31;;;;;;;36.60;25.65;;;;;;;-0.57;60.96;98664.98;127537;1105;22601;-75
2021/01/29 12:58:06;;;;;;;39.90;31.35;;;;;;;-0.49;61.44;98662.53;127721;1105;22674;-75
2021/01/29 13:00:40;;;;;;;42.17;32.13;;;;;;;-0.43;60.62;98661.13;127778;1107;22509;-75
2021/01/29 13:03:18;;;;;;;121.67;82.85;;;;;;;-0.38;60.83;98659.77;127437;1106;23133;-75
2021/01/29 13:06:48;;;;;;;52.48;43.80;;;;;;;-0.34;61.13;98650.73;127618;1107;22537;-75
2021/01/29 13:09:30;;;;;;;56.02;42.60;;;;;;;-0.37;61.19;98657.98;126939;1110;22528;-75